This is the latest recevied weather packets stored in our database for station/object DL1AIE-13. If no packets are shown the sender has not sent any weather packets the latest 10 day(s).
| Time | Temp. | Humidity | Pressure | Rain* | Wind** | Luminosity | Snow |
|---|---|---|---|---|---|---|---|
| 1777604540 | 6.11° C | 73% | 1028.4 hPa | 0 mm | - | - | - |
| 1777603937 | 5° C | 79% | 1028.2 hPa | 0 mm | - | - | - |
| 1777603353 | 6.11° C | 75% | 1028.3 hPa | 0 mm | - | - | - |
| 1777602749 | 6.67° C | 70% | 1028.5 hPa | 0 mm | - | - | - |
| 1777602146 | 6.11° C | 73% | 1028.5 hPa | 0 mm | - | - | - |
| 1777601542 | 6.67° C | 73% | 1028.4 hPa | 0 mm | - | - | - |
| 1777600939 | 6.67° C | 71% | 1028.3 hPa | 0 mm | - | - | - |
| 1777600355 | 6.11° C | 74% | 1028.5 hPa | 0 mm | - | - | - |
| 1777599756 | 7.22° C | 70% | 1028.5 hPa | 0 mm | - | - | - |
| 1777598544 | 7.22° C | 70% | 1028.6 hPa | 0 mm | - | - | - |
| 1777597940 | 6.11° C | 72% | 1028.6 hPa | 0 mm | - | - | - |
| 1777597337 | 6.67° C | 71% | 1028.5 hPa | 0 mm | - | - | - |
| 1777596752 | 7.22° C | 69% | 1028.6 hPa | 0 mm | - | - | - |
| 1777596149 | 8.33° C | 65% | 1028.6 hPa | 0 mm | - | - | - |
| 1777595544 | 7.78° C | 66% | 1028.5 hPa | 0 mm | - | - | - |
| 1777594944 | 8.33° C | 66% | 1028.5 hPa | 0 mm | - | - | - |
| 1777594337 | 7.78° C | 66% | 1028.4 hPa | 0 mm | - | - | - |
| 1777593753 | 8.33° C | 66% | 1028.3 hPa | 0 mm | - | - | - |
| 1777593149 | 10° C | 56% | 1028.3 hPa | 0 mm | - | - | - |
| 1777592549 | 10° C | 56% | 1028.4 hPa | 0 mm | - | - | - |
| 1777591942 | 7.78° C | 65% | 1028.5 hPa | 0 mm | - | - | - |
| 1777591338 | 7.78° C | 68% | 1028.6 hPa | 0 mm | - | - | - |
| 1777590754 | 7.22° C | 67% | 1028.6 hPa | 0 mm | - | - | - |
| 1777590150 | 6.67° C | 69% | 1028.5 hPa | 0 mm | - | - | - |
| 1777589546 | 7.22° C | 66% | 1028.5 hPa | 0 mm | - | - | - |
* Rain latest hour (hover to see other rain measurements)
** Current wind speed in m/s (hover to see current wind gust speed)